Aérodrome :
LOGIN :

S'inscrire | Disclaimer

   EN    FR    IT 

 










Légende :    VFR   VFR Marginal   IFR   IFR Intensif   IFR Très Intensif
Visi : 
Plafond : 
>= 8 km
>= 3000ft
5 à 8 km
1000 à 3000 ft
1500m à 5 km
500 à 1000 ft
800 à 1500m
200 à 500 ft
< 800m
< 200 ft
Symboles :   Orages  Brouillard  Fortes neiges  Fortes précipitations  Vent > 20 kt
SIGMETs :   Divers  Orages  Givrage  Turbulence  Onde Orograph.  Cendres Volcan.







- Altitude de l'aérodrome : 55 ft
- Code IATA : DSA
- Voir les cartes d'approche


EGCN - Robin Hood Doncaster Sheffield

DERNIER METAR :
  • 182150Z 00000KT 2000 -DZ FEW001 OVC004 12/12 Q1010

METARs EXPIRÉS :
  • 182120Z 07002KT 1800 -DZ BR FEW001 OVC004 12/12 Q1010
  • 182050Z VRB01KT 2800 BR BKN003 OVC005 11/11 Q1011
  • 182020Z VRB02KT 3000 BR OVC005 11/11 Q1011
  • 181950Z VRB03KT 3000 HZ FEW006 OVC009 12/11 Q1011
  • 181920Z 12005KT 090V150 7000 BKN006 OVC009 12/11 Q1011

TAF AMD TAF EGCN
Valide du 18 à 18h jusqu'au 19 à 18h UTC


181800Z 1818/1918 VRB05KT 9999 BKN016
BECMG 1818/1820 BKN012
TEMPO 1819/1903 4000 RADZ BR BKN004
PROB40 1821/1903 0400 FG VV///
BECMG 1902/1905 SCT012
TEMPO 1903/1911 BKN008
TEMPO 1911/1918 6000 RA BKN006
Pas de NOTAMs connus pour ce terrain.



MET'MAP, la Météo Aéronautique d'un coup d'oeil ! - Copyright ORBIFLY Décembre 2007 - Disclaimer

ORBIFLY MET'MAP TEAM :

Programmation & Développement : Alexandra Zaïnal
Conception & Développement : Baudouin d'Aumeries
Co-Programmation & Développement : Marc-Olivier Méhu
Soutien technique & logistique : Manuel Goepfert

Contact : metmap@orbifly.com




SOURCES & CREDITS :

   NOAA